sensor_id;sensor_type;location;lat;lon;timestamp;temperature;humidity
22337;DHT22;14992;50.844;4.418;2023-05-29T00:01:50;15.50;99.90
22337;DHT22;14992;50.844;4.418;2023-05-29T00:04:19;15.40;99.90
22337;DHT22;14992;50.844;4.418;2023-05-29T00:06:49;15.30;99.90
22337;DHT22;14992;50.844;4.418;2023-05-29T00:09:19;15.30;99.90
22337;DHT22;14992;50.844;4.418;2023-05-29T00:11:48;15.20;99.90
22337;DHT22;14992;50.844;4.418;2023-05-29T00:14:20;15.10;99.90
22337;DHT22;14992;50.844;4.418;2023-05-29T00:16:51;15.10;99.90
22337;DHT22;14992;50.844;4.418;2023-05-29T00:19:20;15.00;99.90
22337;DHT22;14992;50.844;4.418;2023-05-29T00:21:49;15.00;99.90
22337;DHT22;14992;50.844;4.418;2023-05-29T00:24:18;15.00;99.90
22337;DHT22;14992;50.844;4.418;2023-05-29T00:26:48;14.90;99.90
22337;DHT22;14992;50.844;4.418;2023-05-29T00:29:17;14.90;99.90
22337;DHT22;14992;50.844;4.418;2023-05-29T00:31:48;14.90;99.90
22337;DHT22;14992;50.844;4.418;2023-05-29T00:34:23;14.80;99.90
22337;DHT22;14992;50.844;4.418;2023-05-29T00:36:53;14.70;99.90
22337;DHT22;14992;50.844;4.418;2023-05-29T00:39:23;14.60;99.90
22337;DHT22;14992;50.844;4.418;2023-05-29T00:41:52;14.50;99.90
22337;DHT22;14992;50.844;4.418;2023-05-29T00:44:22;14.40;99.90
22337;DHT22;14992;50.844;4.418;2023-05-29T00:46:52;14.40;99.90
22337;DHT22;14992;50.844;4.418;2023-05-29T00:49:24;14.40;99.90
22337;DHT22;14992;50.844;4.418;2023-05-29T00:51:54;14.30;99.90
22337;DHT22;14992;50.844;4.418;2023-05-29T00:54:28;14.30;99.90
22337;DHT22;14992;50.844;4.418;2023-05-29T00:56:58;14.30;99.90
22337;DHT22;14992;50.844;4.418;2023-05-29T00:59:31;14.30;99.90
22337;DHT22;14992;50.844;4.418;2023-05-29T01:02:01;14.20;99.90
22337;DHT22;14992;50.844;4.418;2023-05-29T01:04:32;14.20;99.90
22337;DHT22;14992;50.844;4.418;2023-05-29T01:07:02;14.10;99.90
22337;DHT22;14992;50.844;4.418;2023-05-29T01:09:31;14.10;99.90
22337;DHT22;14992;50.844;4.418;2023-05-29T01:12:08;14.10;99.90
22337;DHT22;14992;50.844;4.418;2023-05-29T01:14:48;14.00;99.90
22337;DHT22;14992;50.844;4.418;2023-05-29T01:17:25;13.90;99.90
22337;DHT22;14992;50.844;4.418;2023-05-29T01:20:07;14.00;99.90
22337;DHT22;14992;50.844;4.418;2023-05-29T01:25:41;14.00;99.90
22337;DHT22;14992;50.844;4.418;2023-05-29T01:28:18;14.00;99.90
22337;DHT22;14992;50.844;4.418;2023-05-29T01:30:49;14.00;99.90
22337;DHT22;14992;50.844;4.418;2023-05-29T01:33:19;13.90;99.90
22337;DHT22;14992;50.844;4.418;2023-05-29T01:35:51;13.90;99.90
22337;DHT22;14992;50.844;4.418;2023-05-29T01:38:20;13.90;99.90
22337;DHT22;14992;50.844;4.418;2023-05-29T01:40:51;13.80;99.90
22337;DHT22;14992;50.844;4.418;2023-05-29T01:43:22;13.80;99.90
22337;DHT22;14992;50.844;4.418;2023-05-29T01:45:51;13.70;99.90
22337;DHT22;14992;50.844;4.418;2023-05-29T01:48:20;13.70;99.90
22337;DHT22;14992;50.844;4.418;2023-05-29T01:50:50;13.70;99.90
22337;DHT22;14992;50.844;4.418;2023-05-29T01:53:19;13.70;99.90
22337;DHT22;14992;50.844;4.418;2023-05-29T01:55:50;13.80;99.90
22337;DHT22;14992;50.844;4.418;2023-05-29T01:58:22;13.80;99.90
22337;DHT22;14992;50.844;4.418;2023-05-29T02:00:51;13.80;99.90
22337;DHT22;14992;50.844;4.418;2023-05-29T02:03:21;13.80;99.90
22337;DHT22;14992;50.844;4.418;2023-05-29T02:05:51;13.80;99.90
22337;DHT22;14992;50.844;4.418;2023-05-29T02:08:20;13.80;99.90
22337;DHT22;14992;50.844;4.418;2023-05-29T02:10:49;13.70;99.90
22337;DHT22;14992;50.844;4.418;2023-05-29T02:13:19;13.70;99.90
22337;DHT22;14992;50.844;4.418;2023-05-29T02:15:50;13.70;99.90
22337;DHT22;14992;50.844;4.418;2023-05-29T02:18:19;13.70;99.90
22337;DHT22;14992;50.844;4.418;2023-05-29T02:20:48;13.60;99.90
22337;DHT22;14992;50.844;4.418;2023-05-29T02:23:21;13.50;99.90
22337;DHT22;14992;50.844;4.418;2023-05-29T02:25:51;13.50;99.90
22337;DHT22;14992;50.844;4.418;2023-05-29T02:28:21;13.50;99.90
22337;DHT22;14992;50.844;4.418;2023-05-29T02:30:51;13.50;99.90
22337;DHT22;14992;50.844;4.418;2023-05-29T02:33:20;13.40;99.90
22337;DHT22;14992;50.844;4.418;2023-05-29T02:35:50;13.50;99.90
22337;DHT22;14992;50.844;4.418;2023-05-29T02:38:19;13.60;99.90
22337;DHT22;14992;50.844;4.418;2023-05-29T02:40:47;13.40;99.90
22337;DHT22;14992;50.844;4.418;2023-05-29T02:43:17;13.40;99.90
22337;DHT22;14992;50.844;4.418;2023-05-29T02:45:48;13.30;99.90
22337;DHT22;14992;50.844;4.418;2023-05-29T02:48:19;13.30;99.90
22337;DHT22;14992;50.844;4.418;2023-05-29T02:50:48;13.40;99.90
22337;DHT22;14992;50.844;4.418;2023-05-29T02:53:17;13.40;99.90
22337;DHT22;14992;50.844;4.418;2023-05-29T02:55:46;13.30;99.90
22337;DHT22;14992;50.844;4.418;2023-05-29T02:58:15;13.30;99.90
22337;DHT22;14992;50.844;4.418;2023-05-29T03:00:48;13.20;99.90
22337;DHT22;14992;50.844;4.418;2023-05-29T03:03:19;13.10;99.90
22337;DHT22;14992;50.844;4.418;2023-05-29T03:05:48;13.10;99.90
22337;DHT22;14992;50.844;4.418;2023-05-29T03:08:17;13.10;99.90
22337;DHT22;14992;50.844;4.418;2023-05-29T03:10:46;13.00;99.90
22337;DHT22;14992;50.844;4.418;2023-05-29T03:13:15;13.00;99.90
22337;DHT22;14992;50.844;4.418;2023-05-29T03:15:53;12.80;99.90
22337;DHT22;14992;50.844;4.418;2023-05-29T03:18:27;12.80;99.90
22337;DHT22;14992;50.844;4.418;2023-05-29T03:20:56;12.60;99.90
22337;DHT22;14992;50.844;4.418;2023-05-29T03:23:26;12.60;99.90
22337;DHT22;14992;50.844;4.418;2023-05-29T03:25:55;12.60;99.90
22337;DHT22;14992;50.844;4.418;2023-05-29T03:28:24;12.50;99.90
22337;DHT22;14992;50.844;4.418;2023-05-29T03:30:54;12.50;99.90
22337;DHT22;14992;50.844;4.418;2023-05-29T03:33:23;12.40;99.90
22337;DHT22;14992;50.844;4.418;2023-05-29T03:36:17;12.40;99.90
22337;DHT22;14992;50.844;4.418;2023-05-29T03:38:46;12.40;99.90
22337;DHT22;14992;50.844;4.418;2023-05-29T03:41:15;12.40;99.90
22337;DHT22;14992;50.844;4.418;2023-05-29T03:43:44;12.30;99.90
22337;DHT22;14992;50.844;4.418;2023-05-29T03:46:13;12.20;99.90
22337;DHT22;14992;50.844;4.418;2023-05-29T03:48:43;12.10;99.90
22337;DHT22;14992;50.844;4.418;2023-05-29T03:51:12;12.10;99.90
22337;DHT22;14992;50.844;4.418;2023-05-29T03:53:43;12.10;99.90
22337;DHT22;14992;50.844;4.418;2023-05-29T03:56:12;12.10;99.90
22337;DHT22;14992;50.844;4.418;2023-05-29T03:58:41;12.10;99.90
22337;DHT22;14992;50.844;4.418;2023-05-29T04:01:10;12.10;99.90
22337;DHT22;14992;50.844;4.418;2023-05-29T04:03:39;12.10;99.90
22337;DHT22;14992;50.844;4.418;2023-05-29T04:06:08;12.10;99.90
22337;DHT22;14992;50.844;4.418;2023-05-29T04:08:38;12.10;99.90
22337;DHT22;14992;50.844;4.418;2023-05-29T04:11:10;12.20;99.90
22337;DHT22;14992;50.844;4.418;2023-05-29T04:13:40;12.20;99.90
22337;DHT22;14992;50.844;4.418;2023-05-29T04:16:11;12.20;99.90
22337;DHT22;14992;50.844;4.418;2023-05-29T04:18:40;12.20;99.90
22337;DHT22;14992;50.844;4.418;2023-05-29T04:21:09;12.20;99.90
22337;DHT22;14992;50.844;4.418;2023-05-29T04:23:38;12.20;99.90
22337;DHT22;14992;50.844;4.418;2023-05-29T04:26:07;12.20;99.90
22337;DHT22;14992;50.844;4.418;2023-05-29T04:28:39;12.10;99.90
22337;DHT22;14992;50.844;4.418;2023-05-29T04:31:10;12.10;99.90
22337;DHT22;14992;50.844;4.418;2023-05-29T04:33:41;12.10;99.90
22337;DHT22;14992;50.844;4.418;2023-05-29T04:36:13;12.10;99.90
22337;DHT22;14992;50.844;4.418;2023-05-29T04:38:45;12.10;99.90
22337;DHT22;14992;50.844;4.418;2023-05-29T04:41:15;12.20;99.90
22337;DHT22;14992;50.844;4.418;2023-05-29T04:43:46;12.20;99.90
22337;DHT22;14992;50.844;4.418;2023-05-29T04:46:17;12.10;99.90
22337;DHT22;14992;50.844;4.418;2023-05-29T04:48:47;12.10;99.90
22337;DHT22;14992;50.844;4.418;2023-05-29T04:51:20;12.10;99.90
22337;DHT22;14992;50.844;4.418;2023-05-29T04:53:50;12.10;99.90
22337;DHT22;14992;50.844;4.418;2023-05-29T04:56:20;12.10;99.90
22337;DHT22;14992;50.844;4.418;2023-05-29T04:58:51;12.10;99.90
22337;DHT22;14992;50.844;4.418;2023-05-29T05:01:20;12.10;99.90
22337;DHT22;14992;50.844;4.418;2023-05-29T05:03:51;12.10;99.90
22337;DHT22;14992;50.844;4.418;2023-05-29T05:06:23;12.10;99.90
22337;DHT22;14992;50.844;4.418;2023-05-29T05:08:53;12.10;99.90
22337;DHT22;14992;50.844;4.418;2023-05-29T05:11:23;12.10;99.90
22337;DHT22;14992;50.844;4.418;2023-05-29T05:13:55;12.20;99.90
22337;DHT22;14992;50.844;4.418;2023-05-29T05:16:24;12.10;99.90
22337;DHT22;14992;50.844;4.418;2023-05-29T05:18:53;12.10;99.90
22337;DHT22;14992;50.844;4.418;2023-05-29T05:21:23;12.10;99.90
22337;DHT22;14992;50.844;4.418;2023-05-29T05:23:54;12.20;99.90
22337;DHT22;14992;50.844;4.418;2023-05-29T05:26:26;12.20;99.90
22337;DHT22;14992;50.844;4.418;2023-05-29T05:28:57;12.30;99.90
22337;DHT22;14992;50.844;4.418;2023-05-29T05:31:29;12.40;99.90
22337;DHT22;14992;50.844;4.418;2023-05-29T05:33:58;12.40;99.90
22337;DHT22;14992;50.844;4.418;2023-05-29T05:36:28;12.30;99.90
22337;DHT22;14992;50.844;4.418;2023-05-29T05:39:02;12.20;99.90
22337;DHT22;14992;50.844;4.418;2023-05-29T05:41:33;12.30;99.90
22337;DHT22;14992;50.844;4.418;2023-05-29T05:44:03;12.50;99.90
22337;DHT22;14992;50.844;4.418;2023-05-29T05:46:50;12.40;99.90
22337;DHT22;14992;50.844;4.418;2023-05-29T05:49:20;12.30;99.90
22337;DHT22;14992;50.844;4.418;2023-05-29T05:51:50;12.40;99.90
22337;DHT22;14992;50.844;4.418;2023-05-29T05:54:19;12.40;99.90
22337;DHT22;14992;50.844;4.418;2023-05-29T05:56:49;12.50;99.90
22337;DHT22;14992;50.844;4.418;2023-05-29T05:59:20;12.60;99.90
22337;DHT22;14992;50.844;4.418;2023-05-29T06:01:49;12.60;99.90
22337;DHT22;14992;50.844;4.418;2023-05-29T06:04:19;12.60;99.90
22337;DHT22;14992;50.844;4.418;2023-05-29T06:06:48;12.60;99.90
22337;DHT22;14992;50.844;4.418;2023-05-29T06:09:17;12.50;99.90
22337;DHT22;14992;50.844;4.418;2023-05-29T06:11:49;12.60;99.90
22337;DHT22;14992;50.844;4.418;2023-05-29T06:14:20;12.60;99.90
22337;DHT22;14992;50.844;4.418;2023-05-29T06:16:49;12.50;99.90
22337;DHT22;14992;50.844;4.418;2023-05-29T06:19:18;12.60;99.90
22337;DHT22;14992;50.844;4.418;2023-05-29T06:21:55;12.70;99.90
22337;DHT22;14992;50.844;4.418;2023-05-29T06:24:24;12.80;99.90
22337;DHT22;14992;50.844;4.418;2023-05-29T06:26:54;12.80;99.90
22337;DHT22;14992;50.844;4.418;2023-05-29T06:29:25;12.80;99.90
22337;DHT22;14992;50.844;4.418;2023-05-29T06:31:54;13.00;99.90
22337;DHT22;14992;50.844;4.418;2023-05-29T06:34:24;13.00;99.90
22337;DHT22;14992;50.844;4.418;2023-05-29T06:36:53;13.00;99.90
22337;DHT22;14992;50.844;4.418;2023-05-29T06:39:22;13.10;99.90
22337;DHT22;14992;50.844;4.418;2023-05-29T06:41:52;13.30;99.90
22337;DHT22;14992;50.844;4.418;2023-05-29T06:44:21;13.40;99.90
22337;DHT22;14992;50.844;4.418;2023-05-29T06:46:52;13.50;99.90
22337;DHT22;14992;50.844;4.418;2023-05-29T06:49:21;13.40;99.90
22337;DHT22;14992;50.844;4.418;2023-05-29T06:51:50;13.30;99.90
22337;DHT22;14992;50.844;4.418;2023-05-29T06:54:39;13.30;99.90
22337;DHT22;14992;50.844;4.418;2023-05-29T06:57:09;13.40;99.90
22337;DHT22;14992;50.844;4.418;2023-05-29T06:59:39;13.60;99.90
22337;DHT22;14992;50.844;4.418;2023-05-29T07:02:10;13.70;99.90
22337;DHT22;14992;50.844;4.418;2023-05-29T07:04:40;13.90;99.90
22337;DHT22;14992;50.844;4.418;2023-05-29T07:07:09;14.00;99.90
22337;DHT22;14992;50.844;4.418;2023-05-29T07:09:38;14.20;99.90
22337;DHT22;14992;50.844;4.418;2023-05-29T07:12:07;14.30;99.90
22337;DHT22;14992;50.844;4.418;2023-05-29T07:14:37;14.20;99.90
22337;DHT22;14992;50.844;4.418;2023-05-29T07:17:07;14.00;99.90
22337;DHT22;14992;50.844;4.418;2023-05-29T07:19:38;14.00;99.90
22337;DHT22;14992;50.844;4.418;2023-05-29T07:22:07;14.10;99.90
22337;DHT22;14992;50.844;4.418;2023-05-29T07:24:37;14.20;99.90
22337;DHT22;14992;50.844;4.418;2023-05-29T07:27:06;14.10;99.90
22337;DHT22;14992;50.844;4.418;2023-05-29T07:29:35;14.30;99.90
22337;DHT22;14992;50.844;4.418;2023-05-29T07:32:04;14.30;99.90
22337;DHT22;14992;50.844;4.418;2023-05-29T07:34:33;14.20;99.90
22337;DHT22;14992;50.844;4.418;2023-05-29T07:37:05;14.20;99.90
22337;DHT22;14992;50.844;4.418;2023-05-29T07:39:36;14.40;99.90
22337;DHT22;14992;50.844;4.418;2023-05-29T07:42:17;14.40;99.90
22337;DHT22;14992;50.844;4.418;2023-05-29T07:44:46;14.60;99.90
22337;DHT22;14992;50.844;4.418;2023-05-29T07:47:15;14.60;99.90
22337;DHT22;14992;50.844;4.418;2023-05-29T07:49:47;14.60;99.90
22337;DHT22;14992;50.844;4.418;2023-05-29T07:52:20;14.80;99.90
22337;DHT22;14992;50.844;4.418;2023-05-29T07:54:49;15.10;99.90
22337;DHT22;14992;50.844;4.418;2023-05-29T07:57:18;15.10;99.90
22337;DHT22;14992;50.844;4.418;2023-05-29T07:59:48;15.40;99.90
22337;DHT22;14992;50.844;4.418;2023-05-29T08:02:18;15.50;99.90
22337;DHT22;14992;50.844;4.418;2023-05-29T08:05:12;15.50;99.90
22337;DHT22;14992;50.844;4.418;2023-05-29T08:07:43;15.60;99.90
22337;DHT22;14992;50.844;4.418;2023-05-29T08:10:12;15.50;99.90
22337;DHT22;14992;50.844;4.418;2023-05-29T08:12:41;15.60;99.90
22337;DHT22;14992;50.844;4.418;2023-05-29T08:15:11;15.50;99.90
22337;DHT22;14992;50.844;4.418;2023-05-29T08:17:41;15.50;99.90
22337;DHT22;14992;50.844;4.418;2023-05-29T08:20:11;15.60;99.90
22337;DHT22;14992;50.844;4.418;2023-05-29T08:22:40;15.70;99.90
22337;DHT22;14992;50.844;4.418;2023-05-29T08:25:12;15.80;99.90
22337;DHT22;14992;50.844;4.418;2023-05-29T08:27:41;15.90;99.90
22337;DHT22;14992;50.844;4.418;2023-05-29T08:30:12;15.90;99.90
22337;DHT22;14992;50.844;4.418;2023-05-29T08:32:42;15.90;99.90
22337;DHT22;14992;50.844;4.418;2023-05-29T08:35:12;15.80;99.90
22337;DHT22;14992;50.844;4.418;2023-05-29T08:37:42;15.90;99.90
22337;DHT22;14992;50.844;4.418;2023-05-29T08:40:13;15.90;99.90
22337;DHT22;14992;50.844;4.418;2023-05-29T08:42:46;16.10;99.90
22337;DHT22;14992;50.844;4.418;2023-05-29T08:45:16;16.20;99.90
22337;DHT22;14992;50.844;4.418;2023-05-29T08:47:49;16.30;99.90
22337;DHT22;14992;50.844;4.418;2023-05-29T08:50:21;16.30;99.90
22337;DHT22;14992;50.844;4.418;2023-05-29T08:52:51;16.20;99.90
22337;DHT22;14992;50.844;4.418;2023-05-29T08:55:22;16.20;99.90
22337;DHT22;14992;50.844;4.418;2023-05-29T08:57:51;16.30;99.90
22337;DHT22;14992;50.844;4.418;2023-05-29T09:00:20;16.30;99.90
22337;DHT22;14992;50.844;4.418;2023-05-29T09:02:55;16.20;99.90
22337;DHT22;14992;50.844;4.418;2023-05-29T09:05:24;16.20;99.90
22337;DHT22;14992;50.844;4.418;2023-05-29T09:07:56;16.10;99.90
22337;DHT22;14992;50.844;4.418;2023-05-29T09:10:26;16.20;99.90
22337;DHT22;14992;50.844;4.418;2023-05-29T09:12:56;16.20;99.90
22337;DHT22;14992;50.844;4.418;2023-05-29T09:15:27;16.30;99.90
22337;DHT22;14992;50.844;4.418;2023-05-29T09:17:57;16.20;99.90
22337;DHT22;14992;50.844;4.418;2023-05-29T09:20:27;16.30;99.90
22337;DHT22;14992;50.844;4.418;2023-05-29T09:22:58;16.50;99.90
22337;DHT22;14992;50.844;4.418;2023-05-29T09:25:31;16.30;99.90
22337;DHT22;14992;50.844;4.418;2023-05-29T09:28:02;16.40;99.90
22337;DHT22;14992;50.844;4.418;2023-05-29T09:30:36;16.60;99.90
22337;DHT22;14992;50.844;4.418;2023-05-29T09:33:08;16.60;99.90
22337;DHT22;14992;50.844;4.418;2023-05-29T09:35:38;16.70;99.90
22337;DHT22;14992;50.844;4.418;2023-05-29T09:38:09;16.70;99.90
22337;DHT22;14992;50.844;4.418;2023-05-29T09:40:52;16.70;99.90
22337;DHT22;14992;50.844;4.418;2023-05-29T09:43:26;16.80;99.90
22337;DHT22;14992;50.844;4.418;2023-05-29T09:45:58;16.80;99.90
22337;DHT22;14992;50.844;4.418;2023-05-29T09:48:29;16.70;99.90
22337;DHT22;14992;50.844;4.418;2023-05-29T09:51:00;16.80;99.90
22337;DHT22;14992;50.844;4.418;2023-05-29T09:53:31;16.80;99.90
22337;DHT22;14992;50.844;4.418;2023-05-29T09:56:03;17.10;99.90
22337;DHT22;14992;50.844;4.418;2023-05-29T09:58:33;17.10;99.90
22337;DHT22;14992;50.844;4.418;2023-05-29T10:01:03;17.10;99.90
22337;DHT22;14992;50.844;4.418;2023-05-29T10:03:32;17.10;99.90
22337;DHT22;14992;50.844;4.418;2023-05-29T10:06:04;17.20;99.90
22337;DHT22;14992;50.844;4.418;2023-05-29T10:08:42;17.30;99.90
22337;DHT22;14992;50.844;4.418;2023-05-29T10:11:20;17.40;99.90
22337;DHT22;14992;50.844;4.418;2023-05-29T10:13:52;17.40;99.90
22337;DHT22;14992;50.844;4.418;2023-05-29T10:16:23;17.50;99.90
22337;DHT22;14992;50.844;4.418;2023-05-29T10:18:55;17.50;99.90
22337;DHT22;14992;50.844;4.418;2023-05-29T10:21:26;17.60;99.90
22337;DHT22;14992;50.844;4.418;2023-05-29T10:23:56;17.70;99.90
22337;DHT22;14992;50.844;4.418;2023-05-29T10:26:28;17.70;99.90
22337;DHT22;14992;50.844;4.418;2023-05-29T10:29:00;17.80;99.90
22337;DHT22;14992;50.844;4.418;2023-05-29T10:31:39;17.80;99.90
22337;DHT22;14992;50.844;4.418;2023-05-29T10:34:23;17.80;99.90
22337;DHT22;14992;50.844;4.418;2023-05-29T10:37:03;17.80;99.90
22337;DHT22;14992;50.844;4.418;2023-05-29T10:39:34;17.90;99.90
22337;DHT22;14992;50.844;4.418;2023-05-29T10:42:45;18.00;99.90
22337;DHT22;14992;50.844;4.418;2023-05-29T10:45:48;18.10;99.90
22337;DHT22;14992;50.844;4.418;2023-05-29T10:48:38;18.20;99.90
22337;DHT22;14992;50.844;4.418;2023-05-29T10:51:24;18.20;99.90
22337;DHT22;14992;50.844;4.418;2023-05-29T10:53:54;18.30;99.90
22337;DHT22;14992;50.844;4.418;2023-05-29T10:56:27;18.30;99.90
22337;DHT22;14992;50.844;4.418;2023-05-29T10:58:59;18.30;99.90
22337;DHT22;14992;50.844;4.418;2023-05-29T11:01:30;18.20;99.90
22337;DHT22;14992;50.844;4.418;2023-05-29T11:04:28;18.20;99.90
22337;DHT22;14992;50.844;4.418;2023-05-29T11:06:59;18.10;99.90
22337;DHT22;14992;50.844;4.418;2023-05-29T11:09:31;18.20;99.90
22337;DHT22;14992;50.844;4.418;2023-05-29T11:12:13;18.10;99.90
22337;DHT22;14992;50.844;4.418;2023-05-29T11:14:54;18.10;99.90
22337;DHT22;14992;50.844;4.418;2023-05-29T11:17:42;18.10;99.90
22337;DHT22;14992;50.844;4.418;2023-05-29T11:20:20;18.30;99.90
22337;DHT22;14992;50.844;4.418;2023-05-29T11:23:01;18.40;99.90
22337;DHT22;14992;50.844;4.418;2023-05-29T11:25:34;18.60;99.90
22337;DHT22;14992;50.844;4.418;2023-05-29T11:28:04;18.70;99.90
22337;DHT22;14992;50.844;4.418;2023-05-29T11:30:45;18.90;99.90
22337;DHT22;14992;50.844;4.418;2023-05-29T11:33:22;19.00;99.90
22337;DHT22;14992;50.844;4.418;2023-05-29T11:35:56;19.00;99.90
22337;DHT22;14992;50.844;4.418;2023-05-29T11:38:26;19.10;99.90
22337;DHT22;14992;50.844;4.418;2023-05-29T11:40:56;19.20;99.90
22337;DHT22;14992;50.844;4.418;2023-05-29T11:43:26;19.10;99.90
22337;DHT22;14992;50.844;4.418;2023-05-29T11:45:56;19.00;99.90
22337;DHT22;14992;50.844;4.418;2023-05-29T11:48:26;19.00;99.90
22337;DHT22;14992;50.844;4.418;2023-05-29T11:50:55;18.90;99.90
22337;DHT22;14992;50.844;4.418;2023-05-29T11:53:25;18.90;99.90
22337;DHT22;14992;50.844;4.418;2023-05-29T11:56:07;19.10;99.90
22337;DHT22;14992;50.844;4.418;2023-05-29T11:58:36;19.10;99.90
22337;DHT22;14992;50.844;4.418;2023-05-29T12:01:07;19.20;99.90
22337;DHT22;14992;50.844;4.418;2023-05-29T12:03:38;19.30;99.90
22337;DHT22;14992;50.844;4.418;2023-05-29T12:06:09;19.50;99.90
22337;DHT22;14992;50.844;4.418;2023-05-29T12:08:38;19.40;99.90
22337;DHT22;14992;50.844;4.418;2023-05-29T12:11:08;19.40;99.90
22337;DHT22;14992;50.844;4.418;2023-05-29T12:13:37;19.50;99.90
22337;DHT22;14992;50.844;4.418;2023-05-29T12:16:08;19.50;99.90
22337;DHT22;14992;50.844;4.418;2023-05-29T12:18:37;19.70;99.90
22337;DHT22;14992;50.844;4.418;2023-05-29T12:21:07;19.70;99.90
22337;DHT22;14992;50.844;4.418;2023-05-29T12:23:37;20.00;99.90
22337;DHT22;14992;50.844;4.418;2023-05-29T12:26:07;20.20;99.90
22337;DHT22;14992;50.844;4.418;2023-05-29T12:28:42;20.20;99.90
22337;DHT22;14992;50.844;4.418;2023-05-29T12:31:13;20.20;99.90
22337;DHT22;14992;50.844;4.418;2023-05-29T12:33:43;19.90;99.90
22337;DHT22;14992;50.844;4.418;2023-05-29T12:36:12;20.00;99.90
22337;DHT22;14992;50.844;4.418;2023-05-29T12:38:47;20.30;99.90
22337;DHT22;14992;50.844;4.418;2023-05-29T12:41:24;20.30;99.90
22337;DHT22;14992;50.844;4.418;2023-05-29T12:43:54;20.40;99.90
22337;DHT22;14992;50.844;4.418;2023-05-29T12:46:26;20.40;99.90
22337;DHT22;14992;50.844;4.418;2023-05-29T12:48:56;20.40;99.90
22337;DHT22;14992;50.844;4.418;2023-05-29T12:51:26;20.40;99.90
22337;DHT22;14992;50.844;4.418;2023-05-29T12:53:55;20.10;99.90
22337;DHT22;14992;50.844;4.418;2023-05-29T12:56:26;20.20;99.90
22337;DHT22;14992;50.844;4.418;2023-05-29T12:58:55;20.30;99.90
22337;DHT22;14992;50.844;4.418;2023-05-29T13:01:26;20.50;99.90
22337;DHT22;14992;50.844;4.418;2023-05-29T13:03:55;20.50;99.90
22337;DHT22;14992;50.844;4.418;2023-05-29T13:06:24;20.20;99.90
22337;DHT22;14992;50.844;4.418;2023-05-29T13:08:54;20.30;99.90
22337;DHT22;14992;50.844;4.418;2023-05-29T13:11:23;20.50;99.90
22337;DHT22;14992;50.844;4.418;2023-05-29T13:13:53;20.40;99.90
22337;DHT22;14992;50.844;4.418;2023-05-29T13:16:22;20.60;99.90
22337;DHT22;14992;50.844;4.418;2023-05-29T13:18:53;20.80;99.90
22337;DHT22;14992;50.844;4.418;2023-05-29T13:21:23;21.00;99.90
22337;DHT22;14992;50.844;4.418;2023-05-29T13:23:52;20.90;99.90
22337;DHT22;14992;50.844;4.418;2023-05-29T13:26:21;21.00;99.90
22337;DHT22;14992;50.844;4.418;2023-05-29T13:28:50;21.00;99.40
22337;DHT22;14992;50.844;4.418;2023-05-29T13:31:20;21.20;99.50
22337;DHT22;14992;50.844;4.418;2023-05-29T13:33:49;21.00;99.60
22337;DHT22;14992;50.844;4.418;2023-05-29T13:36:19;20.90;99.90
22337;DHT22;14992;50.844;4.418;2023-05-29T13:38:48;20.90;99.90
22337;DHT22;14992;50.844;4.418;2023-05-29T13:41:17;21.10;99.90
22337;DHT22;14992;50.844;4.418;2023-05-29T13:43:46;20.90;99.90
22337;DHT22;14992;50.844;4.418;2023-05-29T13:46:15;21.00;99.90
22337;DHT22;14992;50.844;4.418;2023-05-29T13:48:45;21.00;99.90
22337;DHT22;14992;50.844;4.418;2023-05-29T13:51:14;21.00;99.40
22337;DHT22;14992;50.844;4.418;2023-05-29T13:53:45;21.10;98.90
22337;DHT22;14992;50.844;4.418;2023-05-29T13:56:14;20.90;99.30
22337;DHT22;14992;50.844;4.418;2023-05-29T13:58:43;21.00;98.60
22337;DHT22;14992;50.844;4.418;2023-05-29T14:01:12;21.10;98.40
22337;DHT22;14992;50.844;4.418;2023-05-29T14:03:42;21.20;98.60
22337;DHT22;14992;50.844;4.418;2023-05-29T14:06:11;21.40;98.10
22337;DHT22;14992;50.844;4.418;2023-05-29T14:08:40;21.40;97.40
22337;DHT22;14992;50.844;4.418;2023-05-29T14:11:10;21.30;98.70
22337;DHT22;14992;50.844;4.418;2023-05-29T14:13:39;21.40;97.80
22337;DHT22;14992;50.844;4.418;2023-05-29T14:16:08;21.50;97.20
22337;DHT22;14992;50.844;4.418;2023-05-29T14:18:38;21.50;97.30
22337;DHT22;14992;50.844;4.418;2023-05-29T14:21:07;21.60;97.10
22337;DHT22;14992;50.844;4.418;2023-05-29T14:23:37;21.60;96.90
22337;DHT22;14992;50.844;4.418;2023-05-29T14:26:06;21.70;96.30
22337;DHT22;14992;50.844;4.418;2023-05-29T14:28:36;21.80;96.20
22337;DHT22;14992;50.844;4.418;2023-05-29T14:31:06;22.20;96.00
22337;DHT22;14992;50.844;4.418;2023-05-29T14:33:35;21.90;95.60
22337;DHT22;14992;50.844;4.418;2023-05-29T14:36:05;21.60;95.90
22337;DHT22;14992;50.844;4.418;2023-05-29T14:38:35;21.50;96.90
22337;DHT22;14992;50.844;4.418;2023-05-29T14:41:04;21.70;96.70
22337;DHT22;14992;50.844;4.418;2023-05-29T14:43:52;21.80;95.80
22337;DHT22;14992;50.844;4.418;2023-05-29T14:46:25;21.60;96.10
22337;DHT22;14992;50.844;4.418;2023-05-29T14:48:56;21.60;96.40
22337;DHT22;14992;50.844;4.418;2023-05-29T14:51:25;21.70;96.40
22337;DHT22;14992;50.844;4.418;2023-05-29T14:53:54;21.80;95.00
22337;DHT22;14992;50.844;4.418;2023-05-29T14:56:23;21.80;94.90
22337;DHT22;14992;50.844;4.418;2023-05-29T14:58:54;21.50;95.40
22337;DHT22;14992;50.844;4.418;2023-05-29T15:01:23;21.80;95.70
22337;DHT22;14992;50.844;4.418;2023-05-29T15:03:52;21.80;95.70
22337;DHT22;14992;50.844;4.418;2023-05-29T15:06:22;21.90;94.80
22337;DHT22;14992;50.844;4.418;2023-05-29T15:08:51;22.10;94.70
22337;DHT22;14992;50.844;4.418;2023-05-29T15:11:20;21.90;95.20
22337;DHT22;14992;50.844;4.418;2023-05-29T15:13:50;21.80;94.80
22337;DHT22;14992;50.844;4.418;2023-05-29T15:16:20;21.70;95.70
22337;DHT22;14992;50.844;4.418;2023-05-29T15:18:49;21.90;95.30
22337;DHT22;14992;50.844;4.418;2023-05-29T15:21:18;22.00;94.90
22337;DHT22;14992;50.844;4.418;2023-05-29T15:23:47;22.10;94.60
22337;DHT22;14992;50.844;4.418;2023-05-29T15:26:16;22.40;94.10
22337;DHT22;14992;50.844;4.418;2023-05-29T15:28:45;22.30;93.10
22337;DHT22;14992;50.844;4.418;2023-05-29T15:31:14;22.10;93.20
22337;DHT22;14992;50.844;4.418;2023-05-29T15:33:45;22.10;93.30
22337;DHT22;14992;50.844;4.418;2023-05-29T15:36:14;21.90;93.20
22337;DHT22;14992;50.844;4.418;2023-05-29T15:38:46;21.70;94.10
22337;DHT22;14992;50.844;4.418;2023-05-29T15:41:15;21.80;93.30
22337;DHT22;14992;50.844;4.418;2023-05-29T15:43:44;21.70;93.40
22337;DHT22;14992;50.844;4.418;2023-05-29T15:46:13;21.80;92.60
22337;DHT22;14992;50.844;4.418;2023-05-29T15:48:44;21.50;93.00
22337;DHT22;14992;50.844;4.418;2023-05-29T15:51:13;21.40;93.10
22337;DHT22;14992;50.844;4.418;2023-05-29T15:53:42;21.30;93.20
22337;DHT22;14992;50.844;4.418;2023-05-29T15:56:11;21.40;93.10
22337;DHT22;14992;50.844;4.418;2023-05-29T15:58:40;21.60;92.70